Station Historical Data
Daily Summary for April 10, 2012 Units:  Both    English   Metric
« Previous Day
Next Day »
Daily Weekly Monthly Yearly Custom
  High: Low: Average:
Temperature: 71.2 °F /  21.8 °C 48.4 °F /  9.1 °C 58.6 °F /  14.8 °C
Dew Point: 52.5 °F /  11.4 °C 34.2 °F /  1.2 °C 43.2 °F /  6.2 °C
Humidity: 87% 30% 59%
Wind Speed: 14.0mph /  22.5km/h - 2.7mph /  4.3km/h
Wind Gust: 19.0mph /  30.6km/h - -
Wind- - WNW
Pressure: 30.07 in /  1018.2 hPa 30.00 in /  1015.8 hPa -
Precipitation: 0.00 in /  0 mm    
Historical Graphs
 
 
Tabular Data for April 10, 2012
Time Temperature Dew Point Pressure Wind Wind Speed Wind Gust Humidity Rainfall Rate (Hourly) Conditions
00:00 51.3 °F /  10.7 °C 44.3 °F /  6.8 °C 30.06in /  1017.8hPa Calm     77% 0.00in /  0mm
00:05 51.7 °F /  10.9 °C 43.7 °F /  6.5 °C 30.06in /  1017.8hPa Calm     74% 0.00in /  0mm
00:06 51.7 °F /  10.9 °C 43.3 °F /  6.3 °C 30.06in /  1017.8hPa Calm     73% 0.00in /  0mm
00:11 51.4 °F /  10.8 °C 43.8 °F /  6.6 °C 30.06in /  1017.8hPa Calm     75% 0.00in /  0mm
00:16 52.1 °F /  11.2 °C 44.1 °F /  6.7 °C 30.06in /  1017.8hPa Calm     74% 0.00in /  0mm
00:21 52.9 °F /  11.6 °C 44.1 °F /  6.7 °C 30.06in /  1017.8hPa Calm     72% 0.00in /  0mm
00:26 53.1 °F /  11.7 °C 43.2 °F /  6.2 °C 30.06in /  1017.8hPa Calm     69% 0.00in /  0mm
00:31 52.7 °F /  11.5 °C 42.8 °F /  6 °C 30.06in /  1017.8hPa Calm     69% 0.00in /  0mm
00:36 52.1 °F /  11.2 °C 43.0 °F /  6.1 °C 30.06in /  1017.8hPa Calm     71% 0.00in /  0mm
00:41 51.8 °F /  11 °C 43.4 °F /  6.3 °C 30.06in /  1017.8hPa Calm     73% 0.00in /  0mm
00:46 51.7 °F /  10.9 °C 43.7 °F /  6.5 °C 30.06in /  1017.8hPa Calm     74% 0.00in /  0mm
00:51 52.0 °F /  11.1 °C 43.6 °F /  6.4 °C 30.06in /  1017.8hPa Calm     73% 0.00in /  0mm
00:56 52.2 °F /  11.2 °C 43.8 °F /  6.6 °C 30.06in /  1017.8hPa Calm     73% 0.00in /  0mm
01:01 52.2 °F /  11.2 °C 43.5 °F /  6.4 °C 30.06in /  1017.8hPa Calm     72% 0.00in /  0mm
01:06 52.0 °F /  11.1 °C 43.3 °F /  6.3 °C 30.06in /  1017.8hPa Calm     72% 0.00in /  0mm
01:11 51.5 °F /  10.8 °C 43.1 °F /  6.2 °C 30.06in /  1017.8hPa Calm     73% 0.00in /  0mm
01:16 51.7 °F /  10.9 °C 43.3 °F /  6.3 °C 30.06in /  1017.8hPa Calm     73% 0.00in /  0mm
01:22 52.1 °F /  11.2 °C 43.0 °F /  6.1 °C 30.05in /  1017.5hPa Calm     71% 0.00in /  0mm
01:27 53.1 °F /  11.7 °C 44.0 °F /  6.7 °C 30.05in /  1017.5hPa Calm   1.0mph /  1.6km/h 71% 0.00in /  0mm
01:32 53.6 °F /  12 °C 43.7 °F /  6.5 °C 30.05in /  1017.5hPa Calm     69% 0.00in /  0mm
01:37 53.3 °F /  11.8 °C 43.4 °F /  6.3 °C 30.05in /  1017.5hPa Calm     69% 0.00in /  0mm
01:42 53.0 °F /  11.7 °C 43.1 °F /  6.2 °C 30.05in /  1017.5hPa Calm     69% 0.00in /  0mm
01:47 52.9 °F /  11.6 °C 43.4 °F /  6.3 °C 30.05in /  1017.5hPa Calm     70% 0.00in /  0mm
01:52 52.4 °F /  11.3 °C 43.7 °F /  6.5 °C 30.05in /  1017.5hPa Calm     72% 0.00in /  0mm
01:57 51.8 °F /  11 °C 43.4 °F /  6.3 °C 30.05in /  1017.5hPa Calm     73% 0.00in /  0mm
02:02 51.3 °F /  10.7 °C 43.0 °F /  6.1 °C 30.05in /  1017.5hPa Calm     73% 0.00in /  0mm
02:07 50.8 °F /  10.4 °C 43.2 °F /  6.2 °C 30.05in /  1017.5hPa Calm     75% 0.00in /  0mm
02:12 50.3 °F /  10.2 °C 42.7 °F /  5.9 °C 30.05in /  1017.5hPa Calm     75% 0.00in /  0mm
02:17 50.1 °F /  10.1 °C 42.5 °F /  5.8 °C 30.05in /  1017.5hPa Calm     75% 0.00in /  0mm
02:22 49.5 °F /  9.7 °C 42.3 °F /  5.7 °C 30.05in /  1017.5hPa Calm     76% 0.00in /  0mm
02:27 48.9 °F /  9.4 °C 42.3 °F /  5.7 °C 30.05in /  1017.5hPa Calm     78% 0.00in /  0mm
02:32 48.8 °F /  9.3 °C 42.3 °F /  5.7 °C 30.05in /  1017.5hPa Calm     78% 0.00in /  0mm
02:37 48.4 °F /  9.1 °C 41.9 °F /  5.5 °C 30.05in /  1017.5hPa Calm     78% 0.00in /  0mm
02:42 48.5 °F /  9.2 °C 42.6 °F /  5.9 °C 30.05in /  1017.5hPa Calm     80% 0.00in /  0mm
02:47 49.0 °F /  9.4 °C 42.8 °F /  6 °C 30.05in /  1017.5hPa Calm     79% 0.00in /  0mm
02:52 49.1 °F /  9.5 °C 42.9 °F /  6.1 °C 30.05in /  1017.5hPa Calm     79% 0.00in /  0mm
02:57 49.8 °F /  9.9 °C 43.2 °F /  6.2 °C 30.05in /  1017.5hPa Calm     78% 0.00in /  0mm
03:02 50.9 °F /  10.5 °C 43.6 °F /  6.4 °C 30.04in /  1017.2hPa Calm     76% 0.00in /  0mm
03:08 51.7 °F /  10.9 °C 43.7 °F /  6.5 °C 30.04in /  1017.2hPa Calm     74% 0.00in /  0mm
03:13 52.2 °F /  11.2 °C 43.5 °F /  6.4 °C 30.04in /  1017.2hPa Calm     72% 0.00in /  0mm
03:18 52.2 °F /  11.2 °C 43.1 °F /  6.2 °C 30.04in /  1017.2hPa Calm     71% 0.00in /  0mm
03:23 51.8 °F /  11 °C 42.7 °F /  5.9 °C 30.04in /  1017.2hPa Calm     71% 0.00in /  0mm
03:28 51.4 °F /  10.8 °C 42.7 °F /  5.9 °C 30.04in /  1017.2hPa Calm     72% 0.00in /  0mm
03:33 51.2 °F /  10.7 °C 42.9 °F /  6.1 °C 30.03in /  1016.8hPa Calm     73% 0.00in /  0mm
03:38 50.8 °F /  10.4 °C 42.5 °F /  5.8 °C 30.03in /  1016.8hPa Calm     73% 0.00in /  0mm
03:43 50.2 °F /  10.1 °C 42.2 °F /  5.7 °C 30.03in /  1016.8hPa Calm     74% 0.00in /  0mm
03:48 49.9 °F /  9.9 °C 42.3 °F /  5.7 °C 30.03in /  1016.8hPa Calm     75% 0.00in /  0mm
03:53 49.6 °F /  9.8 °C 42.4 °F /  5.8 °C 30.03in /  1016.8hPa Calm     76% 0.00in /  0mm
03:58 49.9 °F /  9.9 °C 42.7 °F /  5.9 °C 30.03in /  1016.8hPa Calm     76% 0.00in /  0mm
04:03 50.4 °F /  10.2 °C 42.8 °F /  6 °C 30.03in /  1016.8hPa Calm     75% 0.00in /  0mm
04:08 50.5 °F /  10.3 °C 42.9 °F /  6.1 °C 30.03in /  1016.8hPa Calm     75% 0.00in /  0mm
04:13 50.3 °F /  10.2 °C 43.0 °F /  6.1 °C 30.03in /  1016.8hPa NW 1.0mph /  1.6km/h 1.0mph /  1.6km/h 76% 0.00in /  0mm
04:18 50.1 °F /  10.1 °C 43.2 °F /  6.2 °C 30.02in /  1016.5hPa Calm   1.0mph /  1.6km/h 77% 0.00in /  0mm
04:23 50.4 °F /  10.2 °C 43.5 °F /  6.4 °C 30.02in /  1016.5hPa Calm   1.0mph /  1.6km/h 77% 0.00in /  0mm
04:28 50.6 °F /  10.3 °C 43.0 °F /  6.1 °C 30.02in /  1016.5hPa Calm     75% 0.00in /  0mm
04:33 50.3 °F /  10.2 °C 43.0 °F /  6.1 °C 30.02in /  1016.5hPa Calm     76% 0.00in /  0mm
04:38 50.1 °F /  10.1 °C 43.2 °F /  6.2 °C 30.02in /  1016.5hPa Calm     77% 0.00in /  0mm
04:43 49.8 °F /  9.9 °C 42.9 °F /  6.1 °C 30.02in /  1016.5hPa Calm     77% 0.00in /  0mm
04:48 49.7 °F /  9.8 °C 43.1 °F /  6.2 °C 30.02in /  1016.5hPa Calm     78% 0.00in /  0mm
04:54 50.1 °F /  10.1 °C 43.2 °F /  6.2 °C 30.01in /  1016.1hPa Calm     77% 0.00in /  0mm
04:58 50.3 °F /  10.2 °C 43.0 °F /  6.1 °C 30.01in /  1016.1hPa Calm   1.0mph /  1.6km/h 76% 0.00in /  0mm
05:04 50.7 °F /  10.4 °C 43.4 °F /  6.3 °C 30.01in /  1016.1hPa SSE 1.0mph /  1.6km/h 2.0mph /  3.2km/h 76% 0.00in /  0mm
05:09 51.0 °F /  10.6 °C 43.0 °F /  6.1 °C 30.01in /  1016.1hPa Calm   1.0mph /  1.6km/h 74% 0.00in /  0mm
05:14 51.3 °F /  10.7 °C 43.3 °F /  6.3 °C 30.01in /  1016.1hPa Calm     74% 0.00in /  0mm
05:19 51.0 °F /  10.6 °C 43.4 °F /  6.3 °C 30.01in /  1016.1hPa Calm     75% 0.00in /  0mm
05:24 50.7 °F /  10.4 °C 43.8 °F /  6.6 °C 30.02in /  1016.5hPa Calm   1.0mph /  1.6km/h 77% 0.00in /  0mm
05:29 50.4 °F /  10.2 °C 43.8 °F /  6.6 °C 30.02in /  1016.5hPa Calm     78% 0.00in /  0mm
05:34 50.3 °F /  10.2 °C 44.4 °F /  6.9 °C 30.01in /  1016.1hPa Calm   2.0mph /  3.2km/h 80% 0.00in /  0mm
05:39 50.3 °F /  10.2 °C 44.0 °F /  6.7 °C 30.01in /  1016.1hPa Calm   1.0mph /  1.6km/h 79% 0.00in /  0mm
05:44 49.9 °F /  9.9 °C 44.0 °F /  6.7 °C 30.01in /  1016.1hPa Calm     80% 0.00in /  0mm
05:49 49.9 °F /  9.9 °C 44.3 °F /  6.8 °C 30.01in /  1016.1hPa SW 1.0mph /  1.6km/h 1.0mph /  1.6km/h 81% 0.00in /  0mm
05:54 49.9 °F /  9.9 °C 44.3 °F /  6.8 °C 30.01in /  1016.1hPa Calm   1.0mph /  1.6km/h 81% 0.00in /  0mm
05:59 49.9 °F /  9.9 °C 44.3 °F /  6.8 °C 30.01in /  1016.1hPa SW 1.0mph /  1.6km/h 1.0mph /  1.6km/h 81% 0.00in /  0mm
06:04 49.8 °F /  9.9 °C 44.2 °F /  6.8 °C 30.01in /  1016.1hPa Calm   1.0mph /  1.6km/h 81% 0.00in /  0mm
06:09 49.6 °F /  9.8 °C 44.0 °F /  6.7 °C 30.02in /  1016.5hPa Calm   1.0mph /  1.6km/h 81% 0.00in /  0mm
06:15 49.7 °F /  9.8 °C 43.8 °F /  6.6 °C 30.02in /  1016.5hPa Calm   1.0mph /  1.6km/h 80% 0.00in /  0mm
06:19 49.8 °F /  9.9 °C 43.9 °F /  6.6 °C 30.02in /  1016.5hPa SW 1.0mph /  1.6km/h 1.0mph /  1.6km/h 80% 0.00in /  0mm
06:25 49.8 °F /  9.9 °C 43.9 °F /  6.6 °C 30.02in /  1016.5hPa WSW 1.0mph /  1.6km/h 2.0mph /  3.2km/h 80% 0.00in /  0mm
06:30 49.9 °F /  9.9 °C 44.0 °F /  6.7 °C 30.02in /  1016.5hPa SW 1.0mph /  1.6km/h 1.0mph /  1.6km/h 80% 0.00in /  0mm
06:35 50.0 °F /  10 °C 44.4 °F /  6.9 °C 30.02in /  1016.5hPa SW 1.0mph /  1.6km/h 2.0mph /  3.2km/h 81% 0.00in /  0mm
06:40 49.8 °F /  9.9 °C 44.2 °F /  6.8 °C 30.02in /  1016.5hPa WSW 1.0mph /  1.6km/h 2.0mph /  3.2km/h 81% 0.00in /  0mm
06:45 49.9 °F /  9.9 °C 44.3 °F /  6.8 °C 30.02in /  1016.5hPa WSW 1.0mph /  1.6km/h 2.0mph /  3.2km/h 81% 0.00in /  0mm
06:50 50.0 °F /  10 °C 44.4 °F /  6.9 °C 30.02in /  1016.5hPa SW 1.0mph /  1.6km/h 2.0mph /  3.2km/h 81% 0.00in /  0mm
06:55 50.0 °F /  10 °C 44.7 °F /  7.1 °C 30.02in /  1016.5hPa SW 1.0mph /  1.6km/h 1.0mph /  1.6km/h 82% 0.00in /  0mm
07:00 50.0 °F /  10 °C 44.7 °F /  7.1 °C 30.02in /  1016.5hPa SW 1.0mph /  1.6km/h 2.0mph /  3.2km/h 82% 0.00in /  0mm
07:05 50.0 °F /  10 °C 44.7 °F /  7.1 °C 30.02in /  1016.5hPa Calm   1.0mph /  1.6km/h 82% 0.00in /  0mm
07:10 49.9 °F /  9.9 °C 44.6 °F /  7 °C 30.02in /  1016.5hPa Calm   1.0mph /  1.6km/h 82% 0.00in /  0mm
07:15 49.7 °F /  9.8 °C 44.4 °F /  6.9 °C 30.02in /  1016.5hPa Calm   1.0mph /  1.6km/h 82% 0.00in /  0mm
07:20 49.5 °F /  9.7 °C 44.2 °F /  6.8 °C 30.02in /  1016.5hPa Calm     82% 0.00in /  0mm
07:25 49.1 °F /  9.5 °C 44.5 °F /  6.9 °C 30.03in /  1016.8hPa Calm     84% 0.00in /  0mm
07:30 49.0 °F /  9.4 °C 44.7 °F /  7.1 °C 30.03in /  1016.8hPa Calm     85% 0.00in /  0mm
07:35 49.0 °F /  9.4 °C 45.0 °F /  7.2 °C 30.03in /  1016.8hPa Calm     86% 0.00in /  0mm
07:40 49.1 °F /  9.5 °C 45.1 °F /  7.3 °C 30.03in /  1016.8hPa Calm     86% 0.00in /  0mm
07:45 48.9 °F /  9.4 °C 44.9 °F /  7.2 °C 30.03in /  1016.8hPa Calm     86% 0.00in /  0mm
07:50 49.2 °F /  9.6 °C 45.2 °F /  7.3 °C 30.04in /  1017.2hPa SW 1.0mph /  1.6km/h 1.0mph /  1.6km/h 86% 0.00in /  0mm
07:55 49.5 °F /  9.7 °C 45.5 °F /  7.5 °C 30.03in /  1016.8hPa Calm     86% 0.00in /  0mm
08:00 49.8 °F /  9.9 °C 46.1 °F /  7.8 °C 30.04in /  1017.2hPa Calm     87% 0.00in /  0mm
08:05 50.2 °F /  10.1 °C 46.2 °F /  7.9 °C 30.04in /  1017.2hPa Calm   1.0mph /  1.6km/h 86% 0.00in /  0mm
08:06 50.3 °F /  10.2 °C 46.3 °F /  7.9 °C 30.04in /  1017.2hPa Calm   1.0mph /  1.6km/h 86% 0.00in /  0mm
08:11 50.8 °F /  10.4 °C 45.8 °F /  7.7 °C 30.03in /  1016.8hPa Calm   1.0mph /  1.6km/h 83% 0.00in /  0mm
08:16 51.4 °F /  10.8 °C 46.1 °F /  7.8 °C 30.04in /  1017.2hPa Calm   1.0mph /  1.6km/h 82% 0.00in /  0mm
08:21 52.0 °F /  11.1 °C 46.7 °F /  8.2 °C 30.04in /  1017.2hPa SSW 1.0mph /  1.6km/h 1.0mph /  1.6km/h 82% 0.00in /  0mm
08:26 52.5 °F /  11.4 °C 47.2 °F /  8.4 °C 30.04in /  1017.2hPa Calm   1.0mph /  1.6km/h 82% 0.00in /  0mm
08:31 53.1 °F /  11.7 °C 48.1 °F /  8.9 °C 30.04in /  1017.2hPa Calm   1.0mph /  1.6km/h 83% 0.00in /  0mm
08:36 53.5 °F /  11.9 °C 48.2 °F /  9 °C 30.05in /  1017.5hPa WSW 1.0mph /  1.6km/h 3.0mph /  4.8km/h 82% 0.00in /  0mm
08:41 53.8 °F /  12.1 °C 48.1 °F /  8.9 °C 30.05in /  1017.5hPa WSW 1.0mph /  1.6km/h 2.0mph /  3.2km/h 81% 0.00in /  0mm
08:46 54.2 °F /  12.3 °C 48.2 °F /  9 °C 30.05in /  1017.5hPa WSW 1.0mph /  1.6km/h 2.0mph /  3.2km/h 80% 0.00in /  0mm
08:51 54.7 °F /  12.6 °C 48.3 °F /  9.1 °C 30.05in /  1017.5hPa WSW 1.0mph /  1.6km/h 3.0mph /  4.8km/h 79% 0.00in /  0mm
08:57 55.1 °F /  12.8 °C 48.7 °F /  9.3 °C 30.05in /  1017.5hPa WSW 2.0mph /  3.2km/h 3.0mph /  4.8km/h 79% 0.00in /  0mm
09:02 55.6 °F /  13.1 °C 49.5 °F /  9.7 °C 30.05in /  1017.5hPa West 1.0mph /  1.6km/h 3.0mph /  4.8km/h 80% 0.00in /  0mm
09:07 56.1 °F /  13.4 °C 49.0 °F /  9.4 °C 30.05in /  1017.5hPa West 3.0mph /  4.8km/h 4.0mph /  6.4km/h 77% 0.00in /  0mm
09:12 56.2 °F /  13.4 °C 49.4 °F /  9.7 °C 30.05in /  1017.5hPa WSW 3.0mph /  4.8km/h 4.0mph /  6.4km/h 78% 0.00in /  0mm
09:17 56.4 °F /  13.6 °C 50.0 °F /  10 °C 30.06in /  1017.8hPa West 2.0mph /  3.2km/h 3.0mph /  4.8km/h 79% 0.00in /  0mm
09:22 56.8 °F /  13.8 °C 50.4 °F /  10.2 °C 30.05in /  1017.5hPa WSW 3.0mph /  4.8km/h 3.0mph /  4.8km/h 79% 0.00in /  0mm
09:27 57.1 °F /  13.9 °C 50.3 °F /  10.2 °C 30.05in /  1017.5hPa WSW 2.0mph /  3.2km/h 4.0mph /  6.4km/h 78% 0.00in /  0mm
09:32 57.2 °F /  14 °C 50.4 °F /  10.2 °C 30.05in /  1017.5hPa WNW 1.0mph /  1.6km/h 4.0mph /  6.4km/h 78% 0.00in /  0mm
09:37 58.0 °F /  14.4 °C 51.9 °F /  11.1 °C 30.06in /  1017.8hPa WNW 4.0mph /  6.4km/h 4.0mph /  6.4km/h 80% 0.00in /  0mm
09:42 58.5 °F /  14.7 °C 51.3 °F /  10.7 °C 30.06in /  1017.8hPa NW 3.0mph /  4.8km/h 6.0mph /  9.7km/h 77% 0.00in /  0mm
09:48 59.0 °F /  15 °C 51.1 °F /  10.6 °C 30.06in /  1017.8hPa WNW 7.0mph /  11.3km/h 9.0mph /  14.5km/h 75% 0.00in /  0mm
09:53 59.5 °F /  15.3 °C 50.8 °F /  10.4 °C 30.06in /  1017.8hPa WNW 6.0mph /  9.7km/h 8.0mph /  12.9km/h 73% 0.00in /  0mm
09:58 59.5 °F /  15.3 °C 50.5 °F /  10.3 °C 30.06in /  1017.8hPa WNW 5.0mph /  8km/h 8.0mph /  12.9km/h 72% 0.00in /  0mm
10:04 59.5 °F /  15.3 °C 50.8 °F /  10.4 °C 30.06in /  1017.8hPa NW 2.0mph /  3.2km/h 6.0mph /  9.7km/h 73% 0.00in /  0mm
10:09 59.6 °F /  15.3 °C 51.3 °F /  10.7 °C 30.06in /  1017.8hPa WNW 4.0mph /  6.4km/h 5.0mph /  8km/h 74% 0.00in /  0mm
10:15 59.7 °F /  15.4 °C 51.0 °F /  10.6 °C 30.06in /  1017.8hPa WNW 2.0mph /  3.2km/h 6.0mph /  9.7km/h 73% 0.00in /  0mm
10:20 59.9 °F /  15.5 °C 51.2 °F /  10.7 °C 30.06in /  1017.8hPa NW 2.0mph /  3.2km/h 6.0mph /  9.7km/h 73% 0.00in /  0mm
10:25 60.2 °F /  15.7 °C 50.4 °F /  10.2 °C 30.06in /  1017.8hPa NW 3.0mph /  4.8km/h 8.0mph /  12.9km/h 70% 0.00in /  0mm
10:30 60.8 °F /  16 °C 51.7 °F /  10.9 °C 30.06in /  1017.8hPa WNW 5.0mph /  8km/h 5.0mph /  8km/h 72% 0.00in /  0mm
10:35 61.4 °F /  16.3 °C 51.9 °F /  11.1 °C 30.06in /  1017.8hPa NW 4.0mph /  6.4km/h 4.0mph /  6.4km/h 71% 0.00in /  0mm
10:40 62.0 °F /  16.7 °C 52.5 °F /  11.4 °C 30.06in /  1017.8hPa NW 4.0mph /  6.4km/h 8.0mph /  12.9km/h 71% 0.00in /  0mm
10:45 62.2 °F /  16.8 °C 51.1 °F /  10.6 °C 30.06in /  1017.8hPa NW 5.0mph /  8km/h 8.0mph /  12.9km/h 67% 0.00in /  0mm
10:50 62.4 °F /  16.9 °C 51.3 °F /  10.7 °C 30.06in /  1017.8hPa WNW 4.0mph /  6.4km/h 7.0mph /  11.3km/h 67% 0.00in /  0mm
10:55 62.4 °F /  16.9 °C 50.9 °F /  10.5 °C 30.06in /  1017.8hPa NW 3.0mph /  4.8km/h 7.0mph /  11.3km/h 66% 0.00in /  0mm
11:00 62.9 °F /  17.2 °C 51.0 °F /  10.6 °C 30.06in /  1017.8hPa NW 4.0mph /  6.4km/h 7.0mph /  11.3km/h 65% 0.00in /  0mm
11:05 63.2 °F /  17.3 °C 50.8 °F /  10.4 °C 30.07in /  1018.2hPa NNW 6.0mph /  9.7km/h 7.0mph /  11.3km/h 64% 0.00in /  0mm
11:10 63.0 °F /  17.2 °C 51.5 °F /  10.8 °C 30.07in /  1018.2hPa WNW 3.0mph /  4.8km/h 6.0mph /  9.7km/h 66% 0.00in /  0mm
11:15 62.9 °F /  17.2 °C 49.7 °F /  9.8 °C 30.07in /  1018.2hPa NW 3.0mph /  4.8km/h 6.0mph /  9.7km/h 62% 0.00in /  0mm
11:20 63.1 °F /  17.3 °C 50.3 °F /  10.2 °C 30.07in /  1018.2hPa NW 3.0mph /  4.8km/h 5.0mph /  8km/h 63% 0.00in /  0mm
11:25 63.3 °F /  17.4 °C 50.5 °F /  10.3 °C 30.06in /  1017.8hPa North 3.0mph /  4.8km/h 5.0mph /  8km/h 63% 0.00in /  0mm
11:30 63.8 °F /  17.7 °C 51.0 °F /  10.6 °C 30.06in /  1017.8hPa NW 3.0mph /  4.8km/h 4.0mph /  6.4km/h 63% 0.00in /  0mm
11:35 64.1 °F /  17.8 °C 50.0 °F /  10 °C 30.06in /  1017.8hPa Calm   3.0mph /  4.8km/h 60% 0.00in /  0mm
11:40 64.3 °F /  17.9 °C 51.0 °F /  10.6 °C 30.06in /  1017.8hPa West 2.0mph /  3.2km/h 2.0mph /  3.2km/h 62% 0.00in /  0mm
11:46 64.6 °F /  18.1 °C 50.9 °F /  10.5 °C 30.06in /  1017.8hPa WNW 3.0mph /  4.8km/h 3.0mph /  4.8km/h 61% 0.00in /  0mm
11:51 65.1 °F /  18.4 °C 50.9 °F /  10.5 °C 30.06in /  1017.8hPa Calm   2.0mph /  3.2km/h 60% 0.00in /  0mm
11:56 65.2 °F /  18.4 °C 50.5 °F /  10.3 °C 30.06in /  1017.8hPa NNW 3.0mph /  4.8km/h 4.0mph /  6.4km/h 59% 0.00in /  0mm
12:01 65.3 °F /  18.5 °C 49.7 °F /  9.8 °C 30.06in /  1017.8hPa NW 2.0mph /  3.2km/h 4.0mph /  6.4km/h 57% 0.00in /  0mm
12:06 65.5 °F /  18.6 °C 50.8 °F /  10.4 °C 30.07in /  1018.2hPa WNW 1.0mph /  1.6km/h 3.0mph /  4.8km/h 59% 0.00in /  0mm
12:11 65.7 °F /  18.7 °C 49.1 °F /  9.5 °C 30.07in /  1018.2hPa NNW 7.0mph /  11.3km/h 7.0mph /  11.3km/h 55% 0.00in /  0mm
12:16 65.6 °F /  18.7 °C 49.0 °F /  9.4 °C 30.06in /  1017.8hPa NW 3.0mph /  4.8km/h 6.0mph /  9.7km/h 55% 0.00in /  0mm
12:21 65.6 °F /  18.7 °C 50.0 °F /  10 °C 30.07in /  1018.2hPa NNW 3.0mph /  4.8km/h 4.0mph /  6.4km/h 57% 0.00in /  0mm
12:27 65.5 °F /  18.6 °C 48.9 °F /  9.4 °C 30.06in /  1017.8hPa WNW 3.0mph /  4.8km/h 6.0mph /  9.7km/h 55% 0.00in /  0mm
12:34 65.4 °F /  18.6 °C 48.3 °F /  9.1 °C 30.06in /  1017.8hPa NNW 3.0mph /  4.8km/h 3.0mph /  4.8km/h 54% 0.00in /  0mm
12:39 65.5 °F /  18.6 °C 46.9 °F /  8.3 °C 30.06in /  1017.8hPa West 5.0mph /  8km/h 5.0mph /  8km/h 51% 0.00in /  0mm
12:44 65.6 °F /  18.7 °C 47.5 °F /  8.6 °C 30.06in /  1017.8hPa WNW 2.0mph /  3.2km/h 6.0mph /  9.7km/h 52% 0.00in /  0mm
12:49 66.0 °F /  18.9 °C 49.9 °F /  9.9 °C 30.06in /  1017.8hPa NNW 4.0mph /  6.4km/h 4.0mph /  6.4km/h 56% 0.00in /  0mm
12:54 66.1 °F /  18.9 °C 48.0 °F /  8.9 °C 30.06in /  1017.8hPa North 2.0mph /  3.2km/h 3.0mph /  4.8km/h 52% 0.00in /  0mm
12:59 66.4 °F /  19.1 °C 48.3 °F /  9.1 °C 30.06in /  1017.8hPa NW 2.0mph /  3.2km/h 2.0mph /  3.2km/h 52% 0.00in /  0mm
13:04 66.4 °F /  19.1 °C 45.0 °F /  7.2 °C 30.06in /  1017.8hPa WNW 2.0mph /  3.2km/h 7.0mph /  11.3km/h 46% 0.00in /  0mm
13:09 66.6 °F /  19.2 °C 46.3 °F /  7.9 °C 30.06in /  1017.8hPa NW 3.0mph /  4.8km/h 6.0mph /  9.7km/h 48% 0.00in /  0mm
13:14 66.7 °F /  19.3 °C 44.7 °F /  7.1 °C 30.06in /  1017.8hPa WNW 3.0mph /  4.8km/h 5.0mph /  8km/h 45% 0.00in /  0mm
13:19 66.7 °F /  19.3 °C 44.7 °F /  7.1 °C 30.06in /  1017.8hPa WNW 4.0mph /  6.4km/h 5.0mph /  8km/h 45% 0.00in /  0mm
13:24 66.4 °F /  19.1 °C 45.0 °F /  7.2 °C 30.06in /  1017.8hPa NW 4.0mph /  6.4km/h 6.0mph /  9.7km/h 46% 0.00in /  0mm
13:29 66.2 °F /  19 °C 46.0 °F /  7.8 °C 30.06in /  1017.8hPa NNW 4.0mph /  6.4km/h 4.0mph /  6.4km/h 48% 0.00in /  0mm
13:34 66.0 °F /  18.9 °C 46.8 °F /  8.2 °C 30.06in /  1017.8hPa NNW 1.0mph /  1.6km/h 4.0mph /  6.4km/h 50% 0.00in /  0mm
13:39 65.9 °F /  18.8 °C 46.8 °F /  8.2 °C 30.06in /  1017.8hPa West 2.0mph /  3.2km/h 2.0mph /  3.2km/h 50% 0.00in /  0mm
13:44 66.2 °F /  19 °C 47.0 °F /  8.3 °C 30.05in /  1017.5hPa NW 1.0mph /  1.6km/h 1.0mph /  1.6km/h 50% 0.00in /  0mm
13:50 66.2 °F /  19 °C 48.1 °F /  8.9 °C 30.05in /  1017.5hPa Calm   1.0mph /  1.6km/h 52% 0.00in /  0mm
13:55 66.7 °F /  19.3 °C 49.5 °F /  9.7 °C 30.05in /  1017.5hPa NW 4.0mph /  6.4km/h 4.0mph /  6.4km/h 54% 0.00in /  0mm
14:00 67.4 °F /  19.7 °C 49.7 °F /  9.8 °C 30.05in /  1017.5hPa NW 6.0mph /  9.7km/h 6.0mph /  9.7km/h 53% 0.00in /  0mm
14:05 68.4 °F /  20.2 °C 48.0 °F /  8.9 °C 30.05in /  1017.5hPa NNE 6.0mph /  9.7km/h 8.0mph /  12.9km/h 48% 0.00in /  0mm
14:11 68.5 °F /  20.3 °C 48.1 °F /  8.9 °C 30.05in /  1017.5hPa West 6.0mph /  9.7km/h 6.0mph /  9.7km/h 48% 0.00in /  0mm
14:16 68.7 °F /  20.4 °C 47.1 °F /  8.4 °C 30.05in /  1017.5hPa NNW 4.0mph /  6.4km/h 6.0mph /  9.7km/h 46% 0.00in /  0mm
14:21 68.5 °F /  20.3 °C 45.1 °F /  7.3 °C 30.05in /  1017.5hPa WNW 5.0mph /  8km/h 7.0mph /  11.3km/h 43% 0.00in /  0mm
14:26 68.9 °F /  20.5 °C 47.3 °F /  8.5 °C 30.04in /  1017.2hPa NNW 4.0mph /  6.4km/h 5.0mph /  8km/h 46% 0.00in /  0mm
14:32 69.2 °F /  20.7 °C 43.9 °F /  6.6 °C 30.04in /  1017.2hPa NNW 7.0mph /  11.3km/h 12.0mph /  19.3km/h 40% 0.00in /  0mm
14:37 69.1 °F /  20.6 °C 43.1 °F /  6.2 °C 30.04in /  1017.2hPa NW 2.0mph /  3.2km/h 8.0mph /  12.9km/h 39% 0.00in /  0mm
14:42 69.1 °F /  20.6 °C 44.4 °F /  6.9 °C 30.04in /  1017.2hPa North 6.0mph /  9.7km/h 9.0mph /  14.5km/h 41% 0.00in /  0mm
14:47 68.7 °F /  20.4 °C 42.1 °F /  5.6 °C 30.04in /  1017.2hPa NNW 5.0mph /  8km/h 11.0mph /  17.7km/h 38% 0.00in /  0mm
14:53 69.7 °F /  20.9 °C 45.6 °F /  7.6 °C 30.04in /  1017.2hPa WNW 4.0mph /  6.4km/h 9.0mph /  14.5km/h 42% 0.00in /  0mm
14:58 69.9 °F /  21.1 °C 43.8 °F /  6.6 °C 30.03in /  1016.8hPa WNW 6.0mph /  9.7km/h 13.0mph /  20.9km/h 39% 0.00in /  0mm
15:01 70.2 °F /  21.2 °C 43.4 °F /  6.3 °C 30.03in /  1016.8hPa NW 4.0mph /  6.4km/h 8.0mph /  12.9km/h 38% 0.00in /  0mm
15:06 70.6 °F /  21.4 °C 45.1 °F /  7.3 °C 30.03in /  1016.8hPa NNW 5.0mph /  8km/h 9.0mph /  14.5km/h 40% 0.00in /  0mm
15:11 71.0 °F /  21.7 °C 46.1 °F /  7.8 °C 30.03in /  1016.8hPa NW 3.0mph /  4.8km/h 8.0mph /  12.9km/h 41% 0.00in /  0mm
15:16 71.2 °F /  21.8 °C 45.0 °F /  7.2 °C 30.03in /  1016.8hPa NW 6.0mph /  9.7km/h 11.0mph /  17.7km/h 39% 0.00in /  0mm
15:21 70.7 °F /  21.5 °C 44.5 °F /  6.9 °C 30.03in /  1016.8hPa WNW 8.0mph /  12.9km/h 11.0mph /  17.7km/h 39% 0.00in /  0mm
15:26 69.7 °F /  20.9 °C 44.3 °F /  6.8 °C 30.03in /  1016.8hPa WNW 7.0mph /  11.3km/h 10.0mph /  16.1km/h 40% 0.00in /  0mm
15:32 69.3 °F /  20.7 °C 46.5 °F /  8.1 °C 30.03in /  1016.8hPa NW 6.0mph /  9.7km/h 9.0mph /  14.5km/h 44% 0.00in /  0mm
15:37 69.4 °F /  20.8 °C 46.0 °F /  7.8 °C 30.03in /  1016.8hPa NW 10.0mph /  16.1km/h 10.0mph /  16.1km/h 43% 0.00in /  0mm
15:42 69.3 °F /  20.7 °C 46.5 °F /  8.1 °C 30.02in /  1016.5hPa NW 8.0mph /  12.9km/h 10.0mph /  16.1km/h 44% 0.00in /  0mm
15:47 68.8 °F /  20.4 °C 44.8 °F /  7.1 °C 30.02in /  1016.5hPa WNW 8.0mph /  12.9km/h 13.0mph /  20.9km/h 42% 0.00in /  0mm
15:52 68.7 °F /  20.4 °C 43.4 °F /  6.3 °C 30.03in /  1016.8hPa NNW 4.0mph /  6.4km/h 13.0mph /  20.9km/h 40% 0.00in /  0mm
15:57 68.8 °F /  20.4 °C 44.2 °F /  6.8 °C 30.02in /  1016.5hPa NNW 6.0mph /  9.7km/h 10.0mph /  16.1km/h 41% 0.00in /  0mm
16:02 68.7 °F /  20.4 °C 43.4 °F /  6.3 °C 30.02in /  1016.5hPa WNW 9.0mph /  14.5km/h 12.0mph /  19.3km/h 40% 0.00in /  0mm
16:07 68.7 °F /  20.4 °C 45.3 °F /  7.4 °C 30.02in /  1016.5hPa WNW 9.0mph /  14.5km/h 9.0mph /  14.5km/h 43% 0.00in /  0mm
16:12 68.8 °F /  20.4 °C 44.8 °F /  7.1 °C 30.02in /  1016.5hPa NW 5.0mph /  8km/h 9.0mph /  14.5km/h 42% 0.00in /  0mm
16:17 68.5 °F /  20.3 °C 45.1 °F /  7.3 °C 30.02in /  1016.5hPa NW 12.0mph /  19.3km/h 12.0mph /  19.3km/h 43% 0.00in /  0mm
16:22 68.7 °F /  20.4 °C 44.7 °F /  7.1 °C 30.02in /  1016.5hPa NW 6.0mph /  9.7km/h 11.0mph /  17.7km/h 42% 0.00in /  0mm
16:27 69.4 °F /  20.8 °C 43.4 °F /  6.3 °C 30.02in /  1016.5hPa NW 13.0mph /  20.9km/h 14.0mph /  22.5km/h 39% 0.00in /  0mm
16:33 69.6 °F /  20.9 °C 44.2 °F /  6.8 °C 30.02in /  1016.5hPa North 10.0mph /  16.1km/h 10.0mph /  16.1km/h 40% 0.00in /  0mm
16:38 69.3 °F /  20.7 °C 41.2 °F /  5.1 °C 30.02in /  1016.5hPa NW 6.0mph /  9.7km/h 12.0mph /  19.3km/h 36% 0.00in /  0mm
16:43 68.6 °F /  20.3 °C 42.0 °F /  5.6 °C 30.01in /  1016.1hPa WNW 8.0mph /  12.9km/h 11.0mph /  17.7km/h 38% 0.00in /  0mm
16:48 68.3 °F /  20.2 °C 41.7 °F /  5.4 °C 30.01in /  1016.1hPa NW 5.0mph /  8km/h 9.0mph /  14.5km/h 38% 0.00in /  0mm
16:53 68.8 °F /  20.4 °C 40.1 °F /  4.5 °C 30.01in /  1016.1hPa WNW 6.0mph /  9.7km/h 13.0mph /  20.9km/h 35% 0.00in /  0mm
16:58 69.2 °F /  20.7 °C 40.4 °F /  4.7 °C 30.01in /  1016.1hPa NW 11.0mph /  17.7km/h 12.0mph /  19.3km/h 35% 0.00in /  0mm
17:03 69.0 °F /  20.6 °C 41.0 °F /  5 °C 30.01in /  1016.1hPa NNW 7.0mph /  11.3km/h 13.0mph /  20.9km/h 36% 0.00in /  0mm
17:08 68.9 °F /  20.5 °C 38.6 °F /  3.7 °C 30.01in /  1016.1hPa NW 9.0mph /  14.5km/h 11.0mph /  17.7km/h 33% 0.00in /  0mm
17:13 68.7 °F /  20.4 °C 38.5 °F /  3.6 °C 30.00in /  1015.8hPa WNW 12.0mph /  19.3km/h 13.0mph /  20.9km/h 33% 0.00in /  0mm
17:18 68.4 °F /  20.2 °C 39.0 °F /  3.9 °C 30.00in /  1015.8hPa NNW 4.0mph /  6.4km/h 12.0mph /  19.3km/h 34% 0.00in /  0mm
17:23 68.6 °F /  20.3 °C 40.6 °F /  4.8 °C 30.00in /  1015.8hPa NNW 10.0mph /  16.1km/h 10.0mph /  16.1km/h 36% 0.00in /  0mm
17:29 68.8 °F /  20.4 °C 39.3 °F /  4.1 °C 30.00in /  1015.8hPa NW 6.0mph /  9.7km/h 13.0mph /  20.9km/h 34% 0.00in /  0mm
17:34 68.8 °F /  20.4 °C 37.8 °F /  3.2 °C 30.00in /  1015.8hPa NW 9.0mph /  14.5km/h 11.0mph /  17.7km/h 32% 0.00in /  0mm
17:36 68.6 °F /  20.3 °C 36.0 °F /  2.2 °C 30.00in /  1015.8hPa WNW 4.0mph /  6.4km/h 12.0mph /  19.3km/h 30% 0.00in /  0mm
17:41 68.5 °F /  20.3 °C 39.0 °F /  3.9 °C 30.00in /  1015.8hPa West 6.0mph /  9.7km/h 9.0mph /  14.5km/h 34% 0.00in /  0mm
17:47 68.5 °F /  20.3 °C 39.0 °F /  3.9 °C 30.01in /  1016.1hPa West 6.0mph /  9.7km/h 11.0mph /  17.7km/h 34% 0.00in /  0mm
17:52 68.5 °F /  20.3 °C 38.3 °F /  3.5 °C 30.01in /  1016.1hPa WNW 8.0mph /  12.9km/h 10.0mph /  16.1km/h 33% 0.00in /  0mm
17:57 68.3 °F /  20.2 °C 37.3 °F /  2.9 °C 30.01in /  1016.1hPa WNW 5.0mph /  8km/h 19.0mph /  30.6km/h 32% 0.00in /  0mm
18:02 68.4 °F /  20.2 °C 38.2 °F /  3.4 °C 30.01in /  1016.1hPa NW 14.0mph /  22.5km/h 14.0mph /  22.5km/h 33% 0.00in /  0mm
18:07 68.2 °F /  20.1 °C 41.0 °F /  5 °C 30.01in /  1016.1hPa NW 7.0mph /  11.3km/h 12.0mph /  19.3km/h 37% 0.00in /  0mm
18:12 68.3 °F /  20.2 °C 41.7 °F /  5.4 °C 30.00in /  1015.8hPa NW 7.0mph /  11.3km/h 10.0mph /  16.1km/h 38% 0.00in /  0mm
18:18 68.5 °F /  20.3 °C 39.8 °F /  4.3 °C 30.01in /  1016.1hPa WNW 8.0mph /  12.9km/h 9.0mph /  14.5km/h 35% 0.00in /  0mm
18:23 68.3 °F /  20.2 °C 39.6 °F /  4.2 °C 30.01in /  1016.1hPa NNW 6.0mph /  9.7km/h 9.0mph /  14.5km/h 35% 0.00in /  0mm
18:28 67.4 °F /  19.7 °C 38.1 °F /  3.4 °C 30.01in /  1016.1hPa NW 6.0mph /  9.7km/h 11.0mph /  17.7km/h 34% 0.00in /  0mm
18:34 67.2 °F /  19.6 °C 38.7 °F /  3.7 °C 30.01in /  1016.1hPa NNW 4.0mph /  6.4km/h 8.0mph /  12.9km/h 35% 0.00in /  0mm
18:39 67.1 °F /  19.5 °C 40.0 °F /  4.4 °C 30.01in /  1016.1hPa NW 5.0mph /  8km/h 9.0mph /  14.5km/h 37% 0.00in /  0mm
18:44 66.9 °F /  19.4 °C 38.4 °F /  3.6 °C 30.01in /  1016.1hPa NW 5.0mph /  8km/h 8.0mph /  12.9km/h 35% 0.00in /  0mm
18:48 66.9 °F /  19.4 °C 39.8 °F /  4.3 °C 30.01in /  1016.1hPa WNW 3.0mph /  4.8km/h 6.0mph /  9.7km/h 37% 0.00in /  0mm
18:53 66.8 °F /  19.3 °C 39.7 °F /  4.3 °C 30.01in /  1016.1hPa WNW 5.0mph /  8km/h 6.0mph /  9.7km/h 37% 0.00in /  0mm
18:58 66.7 °F /  19.3 °C 39.6 °F /  4.2 °C 30.01in /  1016.1hPa NW 5.0mph /  8km/h 6.0mph /  9.7km/h 37% 0.00in /  0mm
19:03 66.6 °F /  19.2 °C 39.5 °F /  4.2 °C 30.01in /  1016.1hPa NW 3.0mph /  4.8km/h 4.0mph /  6.4km/h 37% 0.00in /  0mm
19:08 66.5 °F /  19.2 °C 40.1 °F /  4.5 °C 30.01in /  1016.1hPa NW 5.0mph /  8km/h 6.0mph /  9.7km/h 38% 0.00in /  0mm
19:13 66.2 °F /  19 °C 39.2 °F /  4 °C 30.01in /  1016.1hPa WNW 2.0mph /  3.2km/h 6.0mph /  9.7km/h 37% 0.00in /  0mm
19:18 65.9 °F /  18.8 °C 37.5 °F /  3.1 °C 30.01in /  1016.1hPa WNW 7.0mph /  11.3km/h 10.0mph /  16.1km/h 35% 0.00in /  0mm
19:23 65.8 °F /  18.8 °C 38.1 °F /  3.4 °C 30.01in /  1016.1hPa NW 2.0mph /  3.2km/h 7.0mph /  11.3km/h 36% 0.00in /  0mm
19:28 65.5 °F /  18.6 °C 37.2 °F /  2.9 °C 30.01in /  1016.1hPa NNW 4.0mph /  6.4km/h 9.0mph /  14.5km/h 35% 0.00in /  0mm
19:33 65.2 °F /  18.4 °C 37.6 °F /  3.1 °C 30.01in /  1016.1hPa WNW 6.0mph /  9.7km/h 9.0mph /  14.5km/h 36% 0.00in /  0mm
19:37 64.9 °F /  18.3 °C 37.3 °F /  2.9 °C 30.01in /  1016.1hPa WNW 6.0mph /  9.7km/h 7.0mph /  11.3km/h 36% 0.00in /  0mm
19:42 64.4 °F /  18 °C 36.9 °F /  2.7 °C 30.01in /  1016.1hPa WNW 4.0mph /  6.4km/h 9.0mph /  14.5km/h 36% 0.00in /  0mm
19:47 64.0 °F /  17.8 °C 36.5 °F /  2.5 °C 30.01in /  1016.1hPa NW 6.0mph /  9.7km/h 7.0mph /  11.3km/h 36% 0.00in /  0mm
19:53 63.7 °F /  17.6 °C 37.0 °F /  2.8 °C 30.01in /  1016.1hPa NW 4.0mph /  6.4km/h 7.0mph /  11.3km/h 37% 0.00in /  0mm
19:58 63.4 °F /  17.4 °C 36.7 °F /  2.6 °C 30.01in /  1016.1hPa NW 3.0mph /  4.8km/h 6.0mph /  9.7km/h 37% 0.00in /  0mm
20:03 62.8 °F /  17.1 °C 36.8 °F /  2.7 °C 30.01in /  1016.1hPa WNW 3.0mph /  4.8km/h 4.0mph /  6.4km/h 38% 0.00in /  0mm
20:08 62.3 °F /  16.8 °C 37.0 °F /  2.8 °C 30.01in /  1016.1hPa NW 1.0mph /  1.6km/h 4.0mph /  6.4km/h 39% 0.00in /  0mm
20:13 61.7 °F /  16.5 °C 37.2 °F /  2.9 °C 30.01in /  1016.1hPa WNW 1.0mph /  1.6km/h 2.0mph /  3.2km/h 40% 0.00in /  0mm
20:18 61.3 °F /  16.3 °C 37.4 °F /  3 °C 30.01in /  1016.1hPa WNW 1.0mph /  1.6km/h 2.0mph /  3.2km/h 41% 0.00in /  0mm
20:23 60.8 °F /  16 °C 37.6 °F /  3.1 °C 30.02in /  1016.5hPa WNW 1.0mph /  1.6km/h 1.0mph /  1.6km/h 42% 0.00in /  0mm
20:28 60.4 °F /  15.8 °C 37.8 °F /  3.2 °C 30.02in /  1016.5hPa WNW 1.0mph /  1.6km/h 3.0mph /  4.8km/h 43% 0.00in /  0mm
20:33 60.0 °F /  15.6 °C 37.5 °F /  3.1 °C 30.02in /  1016.5hPa WNW 1.0mph /  1.6km/h 2.0mph /  3.2km/h 43% 0.00in /  0mm
20:38 59.8 °F /  15.4 °C 37.3 °F /  2.9 °C 30.02in /  1016.5hPa WNW 2.0mph /  3.2km/h 4.0mph /  6.4km/h 43% 0.00in /  0mm
20:44 59.6 °F /  15.3 °C 37.7 °F /  3.2 °C 30.02in /  1016.5hPa WNW 1.0mph /  1.6km/h 2.0mph /  3.2km/h 44% 0.00in /  0mm
20:49 59.1 °F /  15.1 °C 37.8 °F /  3.2 °C 30.02in /  1016.5hPa WNW 1.0mph /  1.6km/h 2.0mph /  3.2km/h 45% 0.00in /  0mm
20:54 59.0 °F /  15 °C 37.7 °F /  3.2 °C 30.02in /  1016.5hPa WNW 1.0mph /  1.6km/h 2.0mph /  3.2km/h 45% 0.00in /  0mm
20:59 58.8 °F /  14.9 °C 38.1 °F /  3.4 °C 30.02in /  1016.5hPa WNW 1.0mph /  1.6km/h 2.0mph /  3.2km/h 46% 0.00in /  0mm
21:04 58.7 °F /  14.8 °C 38.0 °F /  3.3 °C 30.03in /  1016.8hPa WNW 1.0mph /  1.6km/h 2.0mph /  3.2km/h 46% 0.00in /  0mm
21:09 58.3 °F /  14.6 °C 38.2 °F /  3.4 °C 30.03in /  1016.8hPa NW 2.0mph /  3.2km/h 2.0mph /  3.2km/h 47% 0.00in /  0mm
21:14 58.2 °F /  14.6 °C 38.1 °F /  3.4 °C 30.03in /  1016.8hPa NW 1.0mph /  1.6km/h 3.0mph /  4.8km/h 47% 0.00in /  0mm
21:19 57.9 °F /  14.4 °C 38.3 °F /  3.5 °C 30.03in /  1016.8hPa NW 1.0mph /  1.6km/h 2.0mph /  3.2km/h 48% 0.00in /  0mm
21:24 57.3 °F /  14.1 °C 38.3 °F /  3.5 °C 30.03in /  1016.8hPa NW 1.0mph /  1.6km/h 1.0mph /  1.6km/h 49% 0.00in /  0mm
21:29 57.0 °F /  13.9 °C 38.6 °F /  3.7 °C 30.03in /  1016.8hPa NW 2.0mph /  3.2km/h 2.0mph /  3.2km/h 50% 0.00in /  0mm
21:34 56.9 °F /  13.8 °C 38.5 °F /  3.6 °C 30.04in /  1017.2hPa NW 2.0mph /  3.2km/h 2.0mph /  3.2km/h 50% 0.00in /  0mm
21:39 57.0 °F /  13.9 °C 38.6 °F /  3.7 °C 30.03in /  1016.8hPa WNW 2.0mph /  3.2km/h 4.0mph /  6.4km/h 50% 0.00in /  0mm
21:44 57.1 °F /  13.9 °C 38.1 °F /  3.4 °C 30.04in /  1017.2hPa NW 5.0mph /  8km/h 8.0mph /  12.9km/h 49% 0.00in /  0mm
21:49 57.5 °F /  14.2 °C 37.5 °F /  3.1 °C 30.04in /  1017.2hPa WNW 2.0mph /  3.2km/h 9.0mph /  14.5km/h 47% 0.00in /  0mm
21:54 57.5 °F /  14.2 °C 38.0 °F /  3.3 °C 30.04in /  1017.2hPa WNW 3.0mph /  4.8km/h 6.0mph /  9.7km/h 48% 0.00in /  0mm
21:59 57.3 °F /  14.1 °C 37.8 °F /  3.2 °C 30.04in /  1017.2hPa WNW 3.0mph /  4.8km/h 6.0mph /  9.7km/h 48% 0.00in /  0mm
22:04 57.2 °F /  14 °C 37.2 °F /  2.9 °C 30.04in /  1017.2hPa WNW 3.0mph /  4.8km/h 6.0mph /  9.7km/h 47% 0.00in /  0mm
22:09 56.9 °F /  13.8 °C 36.9 °F /  2.7 °C 30.04in /  1017.2hPa WNW 5.0mph /  8km/h 5.0mph /  8km/h 47% 0.00in /  0mm
22:14 56.8 °F /  13.8 °C 36.3 °F /  2.4 °C 30.04in /  1017.2hPa WNW 4.0mph /  6.4km/h 6.0mph /  9.7km/h 46% 0.00in /  0mm
22:19 56.6 °F /  13.7 °C 35.5 °F /  1.9 °C 30.04in /  1017.2hPa WNW 3.0mph /  4.8km/h 7.0mph /  11.3km/h 45% 0.00in /  0mm
22:24 56.6 °F /  13.7 °C 35.0 °F /  1.7 °C 30.04in /  1017.2hPa WNW 3.0mph /  4.8km/h 5.0mph /  8km/h 44% 0.00in /  0mm
22:30 56.3 °F /  13.5 °C 34.7 °F /  1.5 °C 30.04in /  1017.2hPa NW 3.0mph /  4.8km/h 5.0mph /  8km/h 44% 0.00in /  0mm
22:35 56.1 °F /  13.4 °C 34.5 °F /  1.4 °C 30.04in /  1017.2hPa WNW 3.0mph /  4.8km/h 4.0mph /  6.4km/h 44% 0.00in /  0mm
22:40 55.9 °F /  13.3 °C 34.3 °F /  1.3 °C 30.05in /  1017.5hPa WNW 3.0mph /  4.8km/h 5.0mph /  8km/h 44% 0.00in /  0mm
22:45 55.8 °F /  13.2 °C 34.2 °F /  1.2 °C 30.05in /  1017.5hPa NW 2.0mph /  3.2km/h 4.0mph /  6.4km/h 44% 0.00in /  0mm
22:50 55.4 °F /  13 °C 34.4 °F /  1.3 °C 30.05in /  1017.5hPa NW 2.0mph /  3.2km/h 4.0mph /  6.4km/h 45% 0.00in /  0mm
22:51 55.4 °F /  13 °C 34.4 °F /  1.3 °C 30.05in /  1017.5hPa NW 2.0mph /  3.2km/h 3.0mph /  4.8km/h 45% 0.00in /  0mm
22:56 55.1 °F /  12.8 °C 34.2 °F /  1.2 °C 30.05in /  1017.5hPa NW 3.0mph /  4.8km/h 4.0mph /  6.4km/h 45% 0.00in /  0mm
23:01 54.8 °F /  12.7 °C 34.4 °F /  1.3 °C 30.05in /  1017.5hPa NNW 5.0mph /  8km/h 8.0mph /  12.9km/h 46% 0.00in /  0mm
23:03 54.8 °F /  12.7 °C 34.4 °F /  1.3 °C 30.05in /  1017.5hPa NNW 3.0mph /  4.8km/h 5.0mph /  8km/h 46% 0.00in /  0mm
23:08 54.5 °F /  12.5 °C 34.7 °F /  1.5 °C 30.05in /  1017.5hPa NNW 3.0mph /  4.8km/h 4.0mph /  6.4km/h 47% 0.00in /  0mm
23:14 54.4 °F /  12.4 °C 34.6 °F /  1.4 °C 30.05in /  1017.5hPa NNW 3.0mph /  4.8km/h 7.0mph /  11.3km/h 47% 0.00in /  0mm
23:19 54.3 °F /  12.4 °C 34.5 °F /  1.4 °C 30.05in /  1017.5hPa North 3.0mph /  4.8km/h 6.0mph /  9.7km/h 47% 0.00in /  0mm
23:24 54.1 °F /  12.3 °C 34.9 °F /  1.6 °C 30.05in /  1017.5hPa North 2.0mph /  3.2km/h 4.0mph /  6.4km/h 48% 0.00in /  0mm
23:29 53.7 °F /  12.1 °C 34.5 °F /  1.4 °C 30.05in /  1017.5hPa North 3.0mph /  4.8km/h 4.0mph /  6.4km/h 48% 0.00in /  0mm
23:34 53.5 °F /  11.9 °C 34.8 °F /  1.6 °C 30.05in /  1017.5hPa NNW 2.0mph /  3.2km/h 4.0mph /  6.4km/h 49% 0.00in /  0mm
23:35 53.5 °F /  11.9 °C 34.8 °F /  1.6 °C 30.05in /  1017.5hPa NNW 4.0mph /  6.4km/h 4.0mph /  6.4km/h 49% 0.00in /  0mm
23:40 53.2 °F /  11.8 °C 35.1 °F /  1.7 °C 30.06in /  1017.8hPa NNW 3.0mph /  4.8km/h 6.0mph /  9.7km/h 50% 0.00in /  0mm
23:45 52.9 °F /  11.6 °C 35.3 °F /  1.8 °C 30.06in /  1017.8hPa NNW 3.0mph /  4.8km/h 4.0mph /  6.4km/h 51% 0.00in /  0mm
23:46 52.9 °F /  11.6 °C 35.3 °F /  1.8 °C 30.06in /  1017.8hPa NNW 3.0mph /  4.8km/h 4.0mph /  6.4km/h 51% 0.00in /  0mm
23:51 52.6 °F /  11.4 °C 35.5 °F /  1.9 °C 30.06in /  1017.8hPa NW 2.0mph /  3.2km/h 5.0mph /  8km/h 52% 0.00in /  0mm
23:56 52.4 °F /  11.3 °C 35.3 °F /  1.8 °C 30.06in /  1017.8hPa North 5.0mph /  8km/h 5.0mph /  8km/h 52% 0.00in /  0mm
Compliments of Weather Underground